KHAF Airport Information

Runway Information
Runway 12 Length 5000 ft width 150 ft
Elevation 59 ft Threshold 763 ft Heading 137
Runway 30 Length 5000 ft Width 150 ft
Elevation 36 ft Threshold 763 ft Heading 317
Airport Frequencies
Type A/D Name NORCAL APP Frequency 135.1 MHZ
Type UNIC Name CTAF/UNICO Frequency 122.8 MHZ
Airport Navaids
Airport Weather Information & NOTAM
ADDS - METARS form results

(1625 UTC 24 April 2019)
Data provider http://aviationweather.gov/metar/data/
 
METAR text: KHAF 241620Z AUTO 24004KT 2 1/2SM BR CLR 13/11 A2998 RMK AO2
Conditions at: KHAF (HALF MOON BAY , CA, US) observed 1620 UTC 24 April 2019
Temperature: 13.0°C (55°F)
Dewpoint: 11.0°C (52°F) [RH = 88%]
Pressure (altimeter): 29.98 inches Hg (1015.3 mb)
Winds: from the WSW (240 degrees) at 5 MPH (4 knots; 2.1 m/s)
Visibility: 2.50 miles (4.02 km)
Ceiling: at least 12,000 feet AGL
Clouds: sky clear below 12,000 feet AGL
Weather: BR  (mist)

METAR text: KHAF 241615Z AUTO 25005KT 2 1/2SM BR CLR 13/11 A2998 RMK AO2
Conditions at: KHAF (HALF MOON BAY , CA, US) observed 1615 UTC 24 April 2019
Temperature: 13.0°C (55°F)
Dewpoint: 11.0°C (52°F) [RH = 88%]
Pressure (altimeter): 29.98 inches Hg (1015.3 mb)
Winds: from the WSW (250 degrees) at 6 MPH (5 knots; 2.6 m/s)
Visibility: 2.50 miles (4.02 km)
Ceiling: at least 12,000 feet AGL
Clouds: sky clear below 12,000 feet AGL
Weather: BR  (mist)

METAR text: KHAF 241600Z AUTO 25004KT 2 1/2SM BR CLR 12/10 A2998 RMK AO2
Conditions at: KHAF (HALF MOON BAY , CA, US) observed 1600 UTC 24 April 2019
Temperature: 12.0°C (54°F)
Dewpoint: 10.0°C (50°F) [RH = 88%]
Pressure (altimeter): 29.98 inches Hg (1015.3 mb)
Winds: from the WSW (250 degrees) at 5 MPH (4 knots; 2.1 m/s)
Visibility: 2.50 miles (4.02 km)
Ceiling: at least 12,000 feet AGL
Clouds: sky clear below 12,000 feet AGL
Weather: BR  (mist)

METAR text: KHAF 241555Z AUTO 27005KT 2 1/2SM BR CLR 12/11 A2998 RMK AO2
Conditions at: KHAF (HALF MOON BAY , CA, US) observed 1555 UTC 24 April 2019
Temperature: 12.0°C (54°F)
Dewpoint: 11.0°C (52°F) [RH = 94%]
Pressure (altimeter): 29.98 inches Hg (1015.3 mb)
Winds: from the W (270 degrees) at 6 MPH (5 knots; 2.6 m/s)
Visibility: 2.50 miles (4.02 km)
Ceiling: at least 12,000 feet AGL
Clouds: sky clear below 12,000 feet AGL
Weather: BR  (mist)

METAR text: KHAF 241540Z AUTO 31004KT 2 1/2SM BR SCT008 12/10 A2998 RMK AO2
Conditions at: KHAF (HALF MOON BAY , CA, US) observed 1540 UTC 24 April 2019
Temperature: 12.0°C (54°F)
Dewpoint: 10.0°C (50°F) [RH = 88%]
Pressure (altimeter): 29.98 inches Hg (1015.3 mb)
Winds: from the NW (310 degrees) at 5 MPH (4 knots; 2.1 m/s)
Visibility: 2.50 miles (4.02 km)
Ceiling: at least 12,000 feet AGL
Clouds: scattered clouds at 800 feet AGL
Weather: BR  (mist)

METAR text: KHAF 241535Z AUTO 31005KT 2 1/2SM BR SCT006 12/10 A2998 RMK AO2
Conditions at: KHAF (HALF MOON BAY , CA, US) observed 1535 UTC 24 April 2019
Temperature: 12.0°C (54°F)
Dewpoint: 10.0°C (50°F) [RH = 88%]
Pressure (altimeter): 29.98 inches Hg (1015.3 mb)
Winds: from the NW (310 degrees) at 6 MPH (5 knots; 2.6 m/s)
Visibility: 2.50 miles (4.02 km)
Ceiling: at least 12,000 feet AGL
Clouds: scattered clouds at 600 feet AGL
Weather: BR  (mist)